Jamestown, North Carolina
Current Conditions -  °F | °C
As of 2:54 AM on Tuesday 21 Oct 2014 (Local Time) from KGSO Reporting Station
Scattered Clouds Scattered Clouds  
Wind Chill: 56°   Ceiling: Unl
Heat Index: 56°   Visibility: 10mi
Dew Point: 50°   Wind: 5mph
Humidity: 80%   Direction: 240°WSW
Pressure: 29.94"   Gusts: NA
Location:  35.99°N, 79.94°W
Report Text: KGSO 210654Z 24004KT 10SM FEW065 SCT110 13/10 A2994 RMK AO2 SLP133 T01330100
Loading
Personal Weather Stations






























Interactive Weather Map
Tropical Storm Tracking
New forecast layout! Learn more

10-Day Weather Forecast

Advertisements
Track Severe Weather on mobile